KGRK/GRK METAR and TAF weather

Enter ICAO airport designator
Station Type Date Time Source
KGRK METAR 2020/01/23 05:53 UTC NOAA

KGRK 230553Z AUTO 18005KT 7/8SM R15/3500FT BR VV001 10/10 A2989 RMK AO2 SLP123 $


Station Type Date Time Source
KGRK Decoded METAR 2020/01/23 05:53 UTC NOAA

Fort Hood, Robert Gray AAF Ft Hood, TX, United States (KGRK) 31-04N 097-49W
Jan 23, 2020 - 12:53 AM EST / 2020.01.23 0553 UTC
Wind: from the S (180 degrees) at 6 MPH (5 KT):0
Visibility: 7/8 mile(s):0
Sky conditions: obscured
Weather: mist
Temperature: 50 F (10 C)
Dew Point: 50 F (10 C)
Relative Humidity: 100%
Pressure (altimeter): 29.89 in. Hg (1012 hPa)
ob: KGRK 230553Z AUTO 18005KT 7/8SM R15/3500FT BR VV001 10/10 A2989 RMK AO2 SLP123
cycle: 6

Station Type Date Time Source
KGRK TAF 2020/01/23 00:20 UTC NOAA

TAF KGRK 230000Z 2300/2406 18008KT 1600 BR OVC004 QNH2988INS
BECMG 2305/2306 VRB06KT 0800 FG OVC001 QNH2988INS
TEMPO 2310/2312 1600 BR OVC004
BECMG 2312/2313 30009KT 6000 BR OVC007 QNH2990INS
BECMG 2315/2316 33012KT 9999 NSW BKN015 QNH3001INS
BECMG 2318/2319 35012KT 9999 SCT060 QNH3003INS
BECMG 2323/2324 36009KT 9999 SKC QNH3009INS TX16/2321Z TN09/2312Z

Example: see airport list